Terminal Aerodrome Forecast
Issued by NWS Lake Charles, LA

Home | Current Version | Previous Version | Text Only | Print | Product List | Glossary On
Versions: 1 2 3 4 5 6 7 8 9 10 11 12 13 14
000
FTUS44 KLCH 020500
TAFARA
TAF
KARA 020520Z 0206/0306 VRB05KT P6SM VCTS FEW025CB BKN050 BKN110
      TEMPO 0206/0208 5SM SHRA BKN020 OVC045
     FM021400 VRB04KT P6SM VCSH FEW015 BKN050 OVC200
      TEMPO 0220/0224 5SM TSRA BKN035CB BKN050=

USA.gov is the U.S. government's official web portal to all federal, state and local government web resources and services.